Time;durP1;ratioP1;P1;durP2;ratioP2;P2;SDS_P1;SDS_P2;PMS_P1;PMS_P2;Temp;Humidity;BMP_temperature;BMP_pressure;BME280_temperature;BME280_humidity;BME280_pressure;Samples;Min_cycle;Max_cycle;Signal;HPM_P1;HPM_P2
2023/04/18 00:00:57;;;;;;;10.95;8.82;;;10.40;74.70;;;;;;2093953;28;20020;-71
2023/04/18 00:01:58;;;;;;;10.70;8.63;;;10.40;75.00;;;;;;2091284;28;20027;-72
2023/04/18 00:02:58;;;;;;;10.63;8.30;;;10.40;75.30;;;;;;2093289;28;20121;-72
2023/04/18 00:04:00;;;;;;;9.45;8.50;;;10.40;75.40;;;;;;2091556;28;20021;-72
2023/04/18 00:05:02;;;;;;;13.02;8.13;;;10.40;75.60;;;;;;2090866;28;20461;-72
2023/04/18 00:06:03;;;;;;;10.32;8.75;;;10.40;76.60;;;;;;2093161;28;20025;-72
2023/04/18 00:07:05;;;;;;;8.70;7.75;;;10.40;76.40;;;;;;2093336;28;20020;-72
2023/04/18 00:08:05;;;;;;;12.35;9.50;;;10.30;76.30;;;;;;2094322;28;20025;-72
2023/04/18 00:09:06;;;;;;;10.63;8.68;;;10.30;76.80;;;;;;2092924;28;20112;-72
2023/04/18 00:10:07;;;;;;;10.43;8.40;;;10.30;76.90;;;;;;2094235;28;20702;-72
2023/04/18 00:11:07;;;;;;;8.98;8.07;;;10.30;77.30;;;;;;2095535;28;20136;-72
2023/04/18 00:12:09;;;;;;;10.60;9.05;;;10.30;77.60;;;;;;2092136;28;20524;-72
2023/04/18 00:13:10;;;;;;;13.02;8.45;;;10.30;78.00;;;;;;2090718;28;20082;-72
2023/04/18 00:14:12;;;;;;;11.80;8.40;;;10.20;78.10;;;;;;2090139;28;20029;-72
2023/04/18 00:15:12;;;;;;;8.77;7.88;;;10.20;78.40;;;;;;2091825;28;20024;-72
2023/04/18 00:16:13;;;;;;;11.20;8.85;;;10.20;78.60;;;;;;2091430;28;20025;-72
2023/04/18 00:17:14;;;;;;;13.60;9.52;;;10.20;79.00;;;;;;2094354;28;20480;-72
2023/04/18 00:18:16;;;;;;;13.20;8.45;;;10.20;79.20;;;;;;2092502;28;20021;-72
2023/04/18 00:19:17;;;;;;;10.27;8.18;;;10.20;79.50;;;;;;2092453;28;20479;-72
2023/04/18 00:20:17;;;;;;;10.27;9.20;;;10.20;79.80;;;;;;2092903;28;21229;-71
2023/04/18 00:21:18;;;;;;;12.07;9.02;;;10.10;80.00;;;;;;2091949;28;20017;-71
2023/04/18 00:22:22;;;;;;;12.07;8.38;;;10.20;80.30;;;;;;2093132;28;20024;-72
2023/04/18 00:23:26;;;;;;;12.65;9.10;;;10.10;80.50;;;;;;2093169;28;20016;-72
2023/04/18 00:24:27;;;;;;;15.35;9.55;;;10.10;80.90;;;;;;2093646;28;20017;-72
2023/04/18 00:25:28;;;;;;;10.63;8.60;;;10.10;81.40;;;;;;2094868;28;20024;-71
2023/04/18 00:26:28;;;;;;;11.15;8.73;;;10.10;81.50;;;;;;2090998;28;20066;-71
2023/04/18 00:27:29;;;;;;;12.27;9.05;;;10.10;82.00;;;;;;2095718;28;20407;-71
2023/04/18 00:28:29;;;;;;;11.38;8.93;;;10.00;82.40;;;;;;2095016;28;21612;-71
2023/04/18 00:29:33;;;;;;;10.07;9.02;;;10.10;82.80;;;;;;2095364;28;20480;-71
2023/04/18 00:30:33;;;;;;;10.65;9.55;;;10.00;83.20;;;;;;2091531;28;20033;-71
2023/04/18 00:31:34;;;;;;;10.25;9.15;;;10.00;83.50;;;;;;2093386;28;20044;-71
2023/04/18 00:32:34;;;;;;;13.10;8.98;;;10.00;84.00;;;;;;2092503;28;20028;-72
2023/04/18 00:33:35;;;;;;;10.60;9.50;;;10.00;84.40;;;;;;2091293;28;20388;-72
2023/04/18 00:34:36;;;;;;;10.85;8.55;;;9.90;84.80;;;;;;2092473;28;20028;-72
2023/04/18 00:35:37;;;;;;;10.95;8.32;;;9.90;85.10;;;;;;2091957;28;20025;-72
2023/04/18 00:36:37;;;;;;;10.43;8.77;;;9.90;85.80;;;;;;2092865;28;20444;-72
2023/04/18 00:37:38;;;;;;;12.45;8.38;;;9.90;86.40;;;;;;2091903;28;20029;-72
2023/04/18 00:38:38;;;;;;;9.50;7.93;;;9.90;87.00;;;;;;2089516;28;20104;-72
2023/04/18 00:39:39;;;;;;;10.88;8.82;;;9.90;87.50;;;;;;2090122;28;20045;-72
2023/04/18 00:40:39;;;;;;;14.25;8.95;;;9.80;87.90;;;;;;2092338;28;20052;-72
2023/04/18 00:41:40;;;;;;;12.45;8.18;;;9.80;88.60;;;;;;2091319;28;20032;-72
2023/04/18 00:42:40;;;;;;;12.23;8.50;;;9.80;89.00;;;;;;2091625;28;20021;-72
2023/04/18 00:43:41;;;;;;;11.27;8.82;;;9.80;89.30;;;;;;2091463;28;20064;-71
2023/04/18 00:44:41;;;;;;;10.15;9.05;;;9.80;89.80;;;;;;2089535;28;20040;-71
2023/04/18 00:45:43;;;;;;;9.88;8.52;;;9.80;90.30;;;;;;2091373;28;20025;-71
2023/04/18 00:46:43;;;;;;;10.38;8.43;;;9.80;90.40;;;;;;2092165;28;20123;-71
2023/04/18 00:47:44;;;;;;;11.98;8.65;;;9.70;90.60;;;;;;2091514;28;20033;-72
2023/04/18 00:48:45;;;;;;;11.75;8.57;;;9.70;90.90;;;;;;2093082;28;20035;-72
2023/04/18 00:49:47;;;;;;;10.13;8.73;;;9.70;90.90;;;;;;2094326;28;20036;-72
2023/04/18 00:50:47;;;;;;;13.48;9.13;;;9.70;91.20;;;;;;2089270;28;20043;-72
2023/04/18 00:51:49;;;;;;;9.68;8.68;;;9.70;91.40;;;;;;2092430;28;20036;-72
2023/04/18 00:52:50;;;;;;;10.43;8.77;;;9.70;91.40;;;;;;2094509;28;20064;-72
2023/04/18 00:53:51;;;;;;;9.50;8.50;;;9.70;91.60;;;;;;2090084;28;20029;-72
2023/04/18 00:54:53;;;;;;;11.73;8.95;;;9.70;92.00;;;;;;2092455;28;20062;-72
2023/04/18 00:55:54;;;;;;;10.13;8.18;;;9.70;92.20;;;;;;2091999;28;20039;-72
2023/04/18 00:56:55;;;;;;;8.52;7.65;;;9.70;92.50;;;;;;2092717;28;20029;-71
2023/04/18 00:57:55;;;;;;;9.23;8.25;;;9.70;92.70;;;;;;2090191;28;20029;-71
2023/04/18 00:58:56;;;;;;;9.55;8.38;;;9.60;93.30;;;;;;2094340;28;20024;-71
2023/04/18 01:00:07;;;;;;;9.13;8.15;;;9.60;93.20;;;;;;2099082;28;20042;-71
2023/04/18 01:01:08;;;;;;;9.43;8.32;;;9.60;93.70;;;;;;2097303;28;20035;-71
2023/04/18 01:02:09;;;;;;;10.20;8.57;;;9.60;93.90;;;;;;2094807;28;20028;-71
2023/04/18 01:03:09;;;;;;;8.55;7.35;;;9.60;94.10;;;;;;2091387;28;20017;-71
2023/04/18 01:04:10;;;;;;;9.50;8.25;;;9.60;94.40;;;;;;2093004;28;20032;-71
2023/04/18 01:05:10;;;;;;;9.02;8.15;;;9.50;94.60;;;;;;2093629;28;20028;-71
2023/04/18 01:06:11;;;;;;;8.50;7.60;;;9.50;95.00;;;;;;2093014;28;20024;-71
2023/04/18 01:07:12;;;;;;;8.38;7.57;;;9.50;95.30;;;;;;2092543;28;20460;-71
2023/04/18 01:08:13;;;;;;;8.27;7.47;;;9.50;96.00;;;;;;2091694;28;20499;-71
2023/04/18 01:09:14;;;;;;;9.63;8.10;;;9.50;95.90;;;;;;2091319;28;20047;-71
2023/04/18 01:10:15;;;;;;;8.45;7.65;;;9.40;96.20;;;;;;2093298;28;20009;-71
2023/04/18 01:11:15;;;;;;;8.52;7.63;;;9.40;96.40;;;;;;2092502;28;20032;-71
2023/04/18 01:12:16;;;;;;;8.82;7.93;;;9.40;96.80;;;;;;2092008;28;20033;-71
2023/04/18 01:13:19;;;;;;;8.70;7.80;;;9.40;97.00;;;;;;2094741;28;20020;-71
2023/04/18 01:14:20;;;;;;;8.50;7.70;;;9.40;97.30;;;;;;2093347;28;20098;-71
2023/04/18 01:15:21;;;;;;;8.40;7.40;;;9.40;97.60;;;;;;2092158;28;20097;-71
2023/04/18 01:16:21;;;;;;;8.32;7.53;;;9.40;97.60;;;;;;2093833;28;20020;-71
2023/04/18 01:17:22;;;;;;;8.30;7.47;;;9.40;97.80;;;;;;2091579;28;20649;-71
2023/04/18 01:18:23;;;;;;;8.45;7.65;;;9.40;98.10;;;;;;2094999;28;20063;-71
2023/04/18 01:19:23;;;;;;;8.95;8.05;;;9.40;98.30;;;;;;2093115;28;20020;-71
2023/04/18 01:20:25;;;;;;;8.85;7.57;;;9.40;98.40;;;;;;2089379;28;20621;-71
2023/04/18 01:21:25;;;;;;;7.90;7.05;;;9.30;98.60;;;;;;2094172;28;20495;-71
2023/04/18 01:22:30;;;;;;;8.55;7.65;;;9.30;98.80;;;;;;2094369;28;20426;-71
2023/04/18 01:23:31;;;;;;;8.20;7.30;;;9.30;99.10;;;;;;2094428;28;20100;-71
2023/04/18 01:24:32;;;;;;;8.10;7.30;;;9.30;99.20;;;;;;2094639;28;20021;-71
2023/04/18 01:25:33;;;;;;;8.05;6.80;;;9.30;99.20;;;;;;2093211;28;20032;-71
2023/04/18 01:26:33;;;;;;;7.65;6.90;;;9.30;99.30;;;;;;2093917;28;20066;-71
2023/04/18 01:27:34;;;;;;;8.48;7.68;;;9.30;99.60;;;;;;2095768;28;20056;-71
2023/04/18 01:28:35;;;;;;;7.95;7.15;;;9.30;99.80;;;;;;2095417;28;20035;-71
2023/04/18 01:29:36;;;;;;;9.27;7.53;;;9.30;99.90;;;;;;2092029;28;20618;-71
2023/04/18 01:30:37;;;;;;;7.35;6.60;;;9.30;99.90;;;;;;2091802;28;20193;-71
2023/04/18 01:31:39;;;;;;;8.45;7.55;;;9.30;99.90;;;;;;2096057;28;20078;-71
2023/04/18 01:32:39;;;;;;;8.30;7.15;;;9.30;99.90;;;;;;2092312;28;20032;-71
2023/04/18 01:33:40;;;;;;;7.57;6.53;;;9.20;99.90;;;;;;2091665;28;20109;-71
2023/04/18 01:34:40;;;;;;;8.07;7.10;;;9.20;99.90;;;;;;2093799;28;20461;-71
2023/04/18 01:35:41;;;;;;;7.57;6.78;;;9.20;99.90;;;;;;2092871;28;20484;-71
2023/04/18 01:36:41;;;;;;;7.63;6.93;;;9.20;99.90;;;;;;2093037;28;20033;-71
2023/04/18 01:37:42;;;;;;;8.95;8.05;;;9.20;99.90;;;;;;2092377;28;20033;-71
2023/04/18 01:38:43;;;;;;;8.43;7.50;;;9.20;99.90;;;;;;2093835;28;20028;-71
2023/04/18 01:39:43;;;;;;;7.60;6.90;;;9.10;99.90;;;;;;2093517;28;20135;-71
2023/04/18 01:40:44;;;;;;;7.18;6.57;;;9.20;99.90;;;;;;2092991;28;20033;-71
2023/04/18 01:41:45;;;;;;;7.85;7.13;;;9.20;99.90;;;;;;2092048;28;20024;-72
2023/04/18 01:42:45;;;;;;;9.85;7.40;;;9.20;99.90;;;;;;2093091;28;20128;-72
2023/04/18 01:43:46;;;;;;;7.65;6.88;;;9.10;99.90;;;;;;2092015;28;20033;-72
2023/04/18 01:44:46;;;;;;;9.30;7.00;;;9.10;99.90;;;;;;2094264;28;20350;-72
2023/04/18 01:45:47;;;;;;;7.32;6.60;;;9.10;99.90;;;;;;2091409;28;20028;-72
2023/04/18 01:46:47;;;;;;;7.35;6.68;;;9.10;99.90;;;;;;2093477;28;20020;-72
2023/04/18 01:47:48;;;;;;;8.50;7.07;;;9.10;99.90;;;;;;2092985;28;20733;-72
2023/04/18 01:48:48;;;;;;;7.75;6.93;;;9.10;99.90;;;;;;2093439;28;20806;-72
2023/04/18 01:49:49;;;;;;;7.70;6.70;;;9.00;99.90;;;;;;2092996;28;20056;-72
2023/04/18 01:50:49;;;;;;;7.10;6.50;;;9.00;99.90;;;;;;2091229;28;20395;-72
2023/04/18 01:51:50;;;;;;;7.53;6.78;;;9.00;99.90;;;;;;2093385;28;20036;-72
2023/04/18 01:52:50;;;;;;;7.20;6.60;;;9.00;99.90;;;;;;2093690;28;20705;-72
2023/04/18 01:53:51;;;;;;;8.10;6.05;;;9.00;99.90;;;;;;2093727;28;20155;-72
2023/04/18 01:54:51;;;;;;;7.55;6.80;;;9.00;99.90;;;;;;2093795;28;20084;-72
2023/04/18 01:55:52;;;;;;;9.35;6.72;;;9.00;99.90;;;;;;2093250;28;20038;-72
2023/04/18 01:56:53;;;;;;;7.03;6.43;;;9.00;99.90;;;;;;2092251;28;20025;-72
2023/04/18 01:57:53;;;;;;;7.53;6.50;;;8.90;99.90;;;;;;2095546;28;20557;-72
2023/04/18 01:58:54;;;;;;;7.25;6.55;;;8.90;99.90;;;;;;2096049;28;20139;-72
2023/04/18 01:59:54;;;;;;;7.70;6.90;;;8.90;99.90;;;;;;2091875;28;20029;-71
2023/04/18 02:00:58;;;;;;;7.53;6.53;;;8.90;99.90;;;;;;2093473;28;20032;-71
2023/04/18 02:01:58;;;;;;;7.88;7.07;;;8.90;99.90;;;;;;2091191;28;20029;-71
2023/04/18 02:02:59;;;;;;;6.82;6.22;;;8.90;99.90;;;;;;2092412;28;20020;-71
2023/04/18 02:04:00;;;;;;;7.55;6.80;;;8.90;99.90;;;;;;2093919;28;20020;-71
2023/04/18 02:05:00;;;;;;;7.22;6.45;;;8.90;99.90;;;;;;2092091;28;20048;-71
2023/04/18 02:06:03;;;;;;;7.93;6.80;;;8.90;99.90;;;;;;2093181;28;20103;-71
2023/04/18 02:07:03;;;;;;;8.60;6.57;;;8.90;99.90;;;;;;2094556;28;20384;-71
2023/04/18 02:08:04;;;;;;;8.05;6.78;;;8.90;99.90;;;;;;2093520;28;20048;-71
2023/04/18 02:09:05;;;;;;;7.78;6.97;;;8.80;99.90;;;;;;2094196;28;20076;-71
2023/04/18 02:10:06;;;;;;;7.05;6.18;;;8.90;99.90;;;;;;2091299;28;20033;-71
2023/04/18 02:11:06;;;;;;;7.60;6.78;;;8.80;99.90;;;;;;2092938;28;20021;-71
2023/04/18 02:12:07;;;;;;;6.85;6.15;;;8.80;99.90;;;;;;2096171;28;20050;-71
2023/04/18 02:13:08;;;;;;;7.68;6.97;;;8.80;99.90;;;;;;2094575;28;20494;-71
2023/04/18 02:14:08;;;;;;;7.10;6.40;;;8.80;99.90;;;;;;2092273;28;20025;-71
2023/04/18 02:15:09;;;;;;;7.35;6.57;;;8.80;99.90;;;;;;2093437;28;20741;-71
2023/04/18 02:16:13;;;;;;;6.85;6.22;;;8.80;99.90;;;;;;2091410;28;20027;-71
2023/04/18 02:17:14;;;;;;;7.32;6.60;;;8.80;99.90;;;;;;2096398;28;20012;-71
2023/04/18 02:18:16;;;;;;;6.97;6.28;;;8.80;99.90;;;;;;2095105;28;20032;-71
2023/04/18 02:19:16;;;;;;;7.00;6.30;;;8.80;99.90;;;;;;2094704;28;20108;-71
2023/04/18 02:20:17;;;;;;;9.15;6.93;;;8.80;99.90;;;;;;2093895;28;20078;-71
2023/04/18 02:21:17;;;;;;;6.65;6.03;;;8.80;99.90;;;;;;2095693;28;20098;-71
2023/04/18 02:22:18;;;;;;;6.93;6.25;;;8.80;99.90;;;;;;2095586;28;20020;-72
2023/04/18 02:23:19;;;;;;;7.22;6.53;;;8.80;99.90;;;;;;2094677;28;20024;-71
2023/04/18 02:24:19;;;;;;;6.30;5.70;;;8.80;99.90;;;;;;2092613;28;20021;-71
2023/04/18 02:25:22;;;;;;;7.28;6.50;;;8.70;99.90;;;;;;2092893;28;20056;-71
2023/04/18 02:26:23;;;;;;;7.50;6.80;;;8.70;99.90;;;;;;2095960;28;20491;-71
2023/04/18 02:27:23;;;;;;;8.15;6.00;;;8.70;99.90;;;;;;2093379;28;20436;-71
2023/04/18 02:28:24;;;;;;;6.80;6.20;;;8.70;99.90;;;;;;2094900;28;21147;-71
2023/04/18 02:29:24;;;;;;;8.13;6.65;;;8.70;99.90;;;;;;2094074;28;20100;-71
2023/04/18 02:30:25;;;;;;;6.97;6.38;;;8.70;99.90;;;;;;2092430;28;20603;-71
2023/04/18 02:31:25;;;;;;;7.20;6.60;;;8.70;99.90;;;;;;2091842;28;20033;-71
2023/04/18 02:32:26;;;;;;;6.85;6.25;;;8.70;99.90;;;;;;2091497;28;20399;-71
2023/04/18 02:33:26;;;;;;;7.25;6.55;;;8.70;99.90;;;;;;2094847;28;20028;-71
2023/04/18 02:34:27;;;;;;;6.70;6.10;;;8.60;99.90;;;;;;2095182;28;20036;-71
2023/04/18 02:35:28;;;;;;;6.32;5.72;;;8.60;99.90;;;;;;2093126;28;20024;-71
2023/04/18 02:36:29;;;;;;;8.05;6.95;;;8.60;99.90;;;;;;2094450;28;20021;-71
2023/04/18 02:37:30;;;;;;;6.75;6.05;;;8.60;99.90;;;;;;2093643;28;20117;-71
2023/04/18 02:38:31;;;;;;;7.00;6.40;;;8.60;99.90;;;;;;2094367;28;20047;-71
2023/04/18 02:39:31;;;;;;;7.07;6.43;;;8.60;99.90;;;;;;2092196;28;20063;-72
2023/04/18 02:40:32;;;;;;;7.18;6.50;;;8.60;99.90;;;;;;2092719;28;20111;-72
2023/04/18 02:41:33;;;;;;;7.53;6.82;;;8.60;99.90;;;;;;2092991;28;20024;-71
2023/04/18 02:42:34;;;;;;;7.20;6.55;;;8.60;99.90;;;;;;2094082;28;20017;-71
2023/04/18 02:43:34;;;;;;;8.02;6.60;;;8.60;99.90;;;;;;2091855;28;20031;-71
2023/04/18 02:44:35;;;;;;;7.68;6.13;;;8.60;99.90;;;;;;2093015;28;20035;-71
2023/04/18 02:45:36;;;;;;;8.30;6.30;;;8.60;99.90;;;;;;2092323;28;20017;-71
2023/04/18 02:46:36;;;;;;;7.53;6.72;;;8.60;99.90;;;;;;2093317;28;20021;-71
2023/04/18 02:47:38;;;;;;;7.15;6.45;;;8.60;99.90;;;;;;2095420;28;20016;-71
2023/04/18 02:48:39;;;;;;;7.10;6.40;;;8.60;99.90;;;;;;2094479;28;20050;-71
2023/04/18 02:49:39;;;;;;;8.25;6.38;;;8.60;99.90;;;;;;2093417;28;20025;-71
2023/04/18 02:50:40;;;;;;;7.22;6.53;;;8.60;99.90;;;;;;2091785;28;20033;-71
2023/04/18 02:51:41;;;;;;;7.72;6.93;;;8.60;99.90;;;;;;2095239;28;20111;-71
2023/04/18 02:52:42;;;;;;;8.57;6.25;;;8.60;99.90;;;;;;2092453;28;20040;-71
2023/04/18 02:53:43;;;;;;;7.50;6.57;;;8.50;99.90;;;;;;2094850;28;20121;-71
2023/04/18 02:54:44;;;;;;;7.40;6.70;;;8.50;99.90;;;;;;2094165;28;20086;-71
2023/04/18 02:55:44;;;;;;;7.75;6.93;;;8.50;99.90;;;;;;2090324;28;20109;-71
2023/04/18 02:56:44;;;;;;;7.53;6.82;;;8.50;99.90;;;;;;2090989;28;20036;-71
2023/04/18 02:57:45;;;;;;;7.38;6.30;;;8.50;99.90;;;;;;2092728;28;20712;-71
2023/04/18 02:58:48;;;;;;;10.38;6.65;;;8.50;99.90;;;;;;2092053;28;20448;-71
2023/04/18 02:59:49;;;;;;;7.25;6.55;;;8.50;99.90;;;;;;2093030;28;20032;-71
2023/04/18 03:00:52;;;;;;;7.10;6.40;;;8.50;99.90;;;;;;2092872;28;20028;-71
2023/04/18 03:01:53;;;;;;;7.35;6.65;;;8.50;99.90;;;;;;2093452;28;20127;-71
2023/04/18 03:02:53;;;;;;;7.25;6.55;;;8.50;99.90;;;;;;2092714;28;20025;-71
2023/04/18 03:03:54;;;;;;;7.63;6.72;;;8.50;99.90;;;;;;2092450;28;20056;-71
2023/04/18 03:04:55;;;;;;;7.28;6.57;;;8.50;99.90;;;;;;2093796;28;20023;-71
2023/04/18 03:05:55;;;;;;;7.38;6.68;;;8.50;99.90;;;;;;2090932;28;20056;-71
2023/04/18 03:06:58;;;;;;;7.50;6.70;;;8.50;99.90;;;;;;2093564;28;20025;-71
2023/04/18 03:07:58;;;;;;;7.18;6.57;;;8.50;99.90;;;;;;2094017;28;20021;-71
2023/04/18 03:08:59;;;;;;;7.20;6.60;;;8.50;99.90;;;;;;2093339;28;20490;-71
2023/04/18 03:09:59;;;;;;;7.57;6.88;;;8.50;99.90;;;;;;2095945;28;20460;-71
2023/04/18 03:11:00;;;;;;;7.50;6.80;;;8.50;99.90;;;;;;2094486;28;20431;-71
2023/04/18 03:12:01;;;;;;;8.15;6.93;;;8.50;99.90;;;;;;2095034;28;20044;-71
2023/04/18 03:13:01;;;;;;;9.43;7.10;;;8.50;99.90;;;;;;2094234;28;20476;-71
2023/04/18 03:14:02;;;;;;;7.05;6.43;;;8.50;99.90;;;;;;2093485;28;20109;-71
2023/04/18 03:15:03;;;;;;;7.75;7.05;;;8.50;99.90;;;;;;2093553;28;20025;-71
2023/04/18 03:16:03;;;;;;;7.60;6.78;;;8.50;99.90;;;;;;2094117;28;20032;-71
2023/04/18 03:17:04;;;;;;;8.65;6.82;;;8.50;99.90;;;;;;2095227;28;20021;-71
2023/04/18 03:18:05;;;;;;;6.75;6.15;;;8.50;99.90;;;;;;2093801;28;20056;-71
2023/04/18 03:19:05;;;;;;;7.53;6.60;;;8.50;99.90;;;;;;2090969;28;20476;-71
2023/04/18 03:20:06;;;;;;;7.25;6.55;;;8.50;99.90;;;;;;2093444;28;20029;-71
2023/04/18 03:21:07;;;;;;;8.00;7.25;;;8.50;99.90;;;;;;2093150;28;20027;-71
2023/04/18 03:22:08;;;;;;;7.50;6.80;;;8.50;99.90;;;;;;2091951;28;20036;-71
2023/04/18 03:23:09;;;;;;;7.72;7.03;;;8.50;99.90;;;;;;2093076;28;20556;-71
2023/04/18 03:24:10;;;;;;;8.05;7.25;;;8.50;99.90;;;;;;2092097;28;20159;-71
2023/04/18 03:25:10;;;;;;;7.10;6.35;;;8.50;99.90;;;;;;2091427;28;21601;-71
2023/04/18 03:26:12;;;;;;;7.82;7.03;;;8.50;99.90;;;;;;2092098;28;20020;-71
2023/04/18 03:27:13;;;;;;;8.50;6.78;;;8.50;99.90;;;;;;2093930;28;20111;-71
2023/04/18 03:28:13;;;;;;;7.95;7.15;;;8.50;99.90;;;;;;2093874;28;20029;-71
2023/04/18 03:29:14;;;;;;;8.32;7.57;;;8.50;99.90;;;;;;2092699;28;20019;-71
2023/04/18 03:30:16;;;;;;;7.63;6.72;;;8.50;99.90;;;;;;2092788;28;20024;-71
2023/04/18 03:31:16;;;;;;;7.93;7.22;;;8.50;99.90;;;;;;2092817;28;20033;-71
2023/04/18 03:32:17;;;;;;;9.43;7.05;;;8.50;99.90;;;;;;2095570;28;20104;-71
2023/04/18 03:33:17;;;;;;;7.72;7.03;;;8.50;99.90;;;;;;2095453;28;20429;-72
2023/04/18 03:34:18;;;;;;;8.20;7.40;;;8.50;99.90;;;;;;2094354;28;20094;-72
2023/04/18 03:35:19;;;;;;;7.97;7.25;;;8.50;99.90;;;;;;2096421;28;20028;-72
2023/04/18 03:36:24;;;;;;;8.18;7.38;;;8.50;99.90;;;;;;2091613;28;20021;-71
2023/04/18 03:37:24;;;;;;;8.32;7.43;;;8.50;99.90;;;;;;2094467;28;20043;-71
2023/04/18 03:38:25;;;;;;;8.38;7.57;;;8.50;99.90;;;;;;2092398;28;20028;-71
2023/04/18 03:39:25;;;;;;;7.60;7.00;;;8.50;99.90;;;;;;2094153;28;20016;-72
2023/04/18 03:40:26;;;;;;;7.57;6.95;;;8.50;99.90;;;;;;2094797;28;20036;-72
2023/04/18 03:41:27;;;;;;;8.85;7.03;;;8.50;99.90;;;;;;2091372;28;20028;-71
2023/04/18 03:42:27;;;;;;;7.63;6.93;;;8.50;99.90;;;;;;2091414;28;20017;-71
2023/04/18 03:43:28;;;;;;;8.00;7.20;;;8.50;99.90;;;;;;2090982;28;20053;-71
2023/04/18 03:44:28;;;;;;;8.52;7.43;;;8.50;99.90;;;;;;2092902;28;20024;-71
2023/04/18 03:45:29;;;;;;;8.85;7.95;;;8.50;99.90;;;;;;2096057;28;20032;-71
2023/04/18 03:46:29;;;;;;;7.32;6.68;;;8.50;99.90;;;;;;2094928;28;20023;-71
2023/04/18 03:47:30;;;;;;;8.55;7.75;;;8.50;99.90;;;;;;2092895;28;20070;-71
2023/04/18 03:48:34;;;;;;;8.10;7.32;;;8.50;99.90;;;;;;2092576;28;20115;-71
2023/04/18 03:49:35;;;;;;;8.52;7.70;;;8.50;99.90;;;;;;2096045;28;20097;-71
2023/04/18 03:50:35;;;;;;;8.07;7.38;;;8.50;99.90;;;;;;2091303;28;20083;-71
2023/04/18 03:51:48;;;;;;;8.52;7.72;;;8.50;99.90;;;;;;2095654;28;20114;-71
2023/04/18 03:52:48;;;;;;;8.18;7.38;;;8.40;99.90;;;;;;2090730;28;20024;-71
2023/04/18 03:53:49;;;;;;;8.20;7.40;;;8.40;99.90;;;;;;2089457;28;20031;-71
2023/04/18 03:54:49;;;;;;;9.25;8.35;;;8.40;99.90;;;;;;2091916;28;20029;-71
2023/04/18 03:55:50;;;;;;;7.75;6.97;;;8.40;99.90;;;;;;2092972;28;20033;-71
2023/04/18 03:56:51;;;;;;;8.52;7.63;;;8.50;99.90;;;;;;2093400;28;20033;-71
2023/04/18 03:57:51;;;;;;;8.20;7.43;;;8.40;99.90;;;;;;2091794;28;20787;-71
2023/04/18 03:58:52;;;;;;;9.30;8.40;;;8.40;99.90;;;;;;2093986;28;20028;-71
2023/04/18 03:59:52;;;;;;;8.98;8.07;;;8.40;99.90;;;;;;2091719;28;20028;-71
2023/04/18 04:00:53;;;;;;;9.23;8.40;;;8.40;99.90;;;;;;2092954;28;20025;-71
2023/04/18 04:01:54;;;;;;;8.57;7.80;;;8.40;99.90;;;;;;2091879;28;20048;-71
2023/04/18 04:02:55;;;;;;;8.57;7.78;;;8.40;99.90;;;;;;2093341;28;20021;-71
2023/04/18 04:03:55;;;;;;;8.43;7.72;;;8.40;99.90;;;;;;2093632;28;20029;-71
2023/04/18 04:04:56;;;;;;;8.73;7.93;;;8.40;99.90;;;;;;2092918;28;20108;-71
2023/04/18 04:05:56;;;;;;;9.35;8.45;;;8.40;99.90;;;;;;2092543;28;20044;-71
2023/04/18 04:06:57;;;;;;;9.57;8.68;;;8.40;99.90;;;;;;2092228;28;20028;-72
2023/04/18 04:07:58;;;;;;;9.23;8.32;;;8.40;99.90;;;;;;2092638;28;20101;-71
2023/04/18 04:08:58;;;;;;;9.55;8.65;;;8.40;99.90;;;;;;2093253;28;20016;-71
2023/04/18 04:09:59;;;;;;;11.18;8.90;;;8.40;99.90;;;;;;2093407;28;20111;-71
2023/04/18 04:11:00;;;;;;;9.77;8.80;;;8.40;99.90;;;;;;2093001;28;20032;-71
2023/04/18 04:12:01;;;;;;;9.30;8.40;;;8.40;99.90;;;;;;2092282;28;20055;-71
2023/04/18 04:13:02;;;;;;;9.70;7.90;;;8.30;99.90;;;;;;2093184;28;20161;-71
2023/04/18 04:14:02;;;;;;;9.57;8.30;;;8.40;99.90;;;;;;2093998;28;20020;-71
2023/04/18 04:15:03;;;;;;;12.32;8.70;;;8.30;99.90;;;;;;2093085;28;20071;-71
2023/04/18 04:16:04;;;;;;;10.23;9.23;;;8.30;99.90;;;;;;2093645;28;20434;-71
2023/04/18 04:17:05;;;;;;;10.20;8.95;;;8.40;99.90;;;;;;2094800;28;20446;-71
2023/04/18 04:18:06;;;;;;;11.15;9.32;;;8.30;99.90;;;;;;2093387;28;20097;-71
2023/04/18 04:19:06;;;;;;;10.27;9.38;;;8.30;99.90;;;;;;2091450;28;20077;-71
2023/04/18 04:20:08;;;;;;;10.93;8.77;;;8.30;99.90;;;;;;2090715;28;20055;-72
2023/04/18 04:21:08;;;;;;;10.00;9.10;;;8.30;99.90;;;;;;2093417;28;20016;-72
2023/04/18 04:22:09;;;;;;;10.32;9.18;;;8.40;99.90;;;;;;2093353;28;20023;-72
2023/04/18 04:23:10;;;;;;;10.80;9.90;;;8.40;99.90;;;;;;2092595;28;20453;-72
2023/04/18 04:24:12;;;;;;;9.75;8.88;;;8.40;99.90;;;;;;2091489;28;20051;-72
2023/04/18 04:25:12;;;;;;;10.05;9.15;;;8.40;99.90;;;;;;2089349;28;20484;-72
2023/04/18 04:26:16;;;;;;;10.20;9.20;;;8.40;99.90;;;;;;2092139;28;20051;-71
2023/04/18 04:27:17;;;;;;;9.63;8.63;;;8.40;99.90;;;;;;2091920;28;20031;-71
2023/04/18 04:28:21;;;;;;;11.18;9.85;;;8.40;99.90;;;;;;2091714;28;20032;-71
2023/04/18 04:29:22;;;;;;;10.65;9.65;;;8.40;99.90;;;;;;2092759;28;20017;-71
2023/04/18 04:30:23;;;;;;;10.82;9.88;;;8.40;99.90;;;;;;2091649;28;20029;-71
2023/04/18 04:31:23;;;;;;;11.82;10.77;;;8.40;99.90;;;;;;2093007;28;20009;-71
2023/04/18 04:32:24;;;;;;;10.48;9.50;;;8.40;99.90;;;;;;2091967;28;20029;-71
2023/04/18 04:33:27;;;;;;;10.98;9.98;;;8.40;99.90;;;;;;2091165;28;20025;-71
2023/04/18 04:34:27;;;;;;;11.05;9.95;;;8.40;99.90;;;;;;2091834;28;20066;-71
2023/04/18 04:35:28;;;;;;;10.40;9.50;;;8.40;99.90;;;;;;2086014;28;20084;-71
2023/04/18 04:36:29;;;;;;;10.25;9.32;;;8.40;99.90;;;;;;2094858;28;20404;-72
2023/04/18 04:37:29;;;;;;;11.02;10.05;;;8.40;99.90;;;;;;2093417;28;20082;-71
2023/04/18 04:38:30;;;;;;;11.93;10.88;;;8.50;99.90;;;;;;2090637;28;20029;-71
2023/04/18 04:39:30;;;;;;;11.10;10.07;;;8.50;99.90;;;;;;2092624;28;20032;-72
2023/04/18 04:40:31;;;;;;;11.57;10.57;;;8.50;99.90;;;;;;2094821;28;21499;-72
2023/04/18 04:41:32;;;;;;;11.00;10.00;;;8.50;99.90;;;;;;2091638;28;20074;-71
2023/04/18 04:42:32;;;;;;;11.80;10.60;;;8.50;99.90;;;;;;2093011;28;20059;-71
2023/04/18 04:43:33;;;;;;;12.38;11.18;;;8.50;99.90;;;;;;2090830;28;20021;-72
2023/04/18 04:44:34;;;;;;;12.32;10.70;;;8.50;99.90;;;;;;2090177;28;20017;-72
2023/04/18 04:45:35;;;;;;;11.35;10.35;;;8.50;99.90;;;;;;2092044;28;20051;-71
2023/04/18 04:46:38;;;;;;;11.77;10.68;;;8.60;99.90;;;;;;2088226;28;20520;-71
2023/04/18 04:47:38;;;;;;;10.20;9.35;;;8.60;99.90;;;;;;2090983;28;20017;-72
2023/04/18 04:48:39;;;;;;;11.40;10.35;;;8.60;99.90;;;;;;2095316;28;20024;-72
2023/04/18 04:49:40;;;;;;;10.98;10.00;;;8.60;99.90;;;;;;2088425;28;20017;-72
2023/04/18 04:50:41;;;;;;;12.70;11.50;;;8.60;99.90;;;;;;2091413;28;20017;-72
2023/04/18 04:51:41;;;;;;;12.60;11.48;;;8.60;99.90;;;;;;2091770;28;20547;-71
2023/04/18 04:52:42;;;;;;;12.32;11.13;;;8.70;99.90;;;;;;2090684;28;20048;-72
2023/04/18 04:53:43;;;;;;;11.77;10.68;;;8.60;99.90;;;;;;2091508;28;20108;-72
2023/04/18 04:54:44;;;;;;;12.23;10.98;;;8.70;99.90;;;;;;2088239;28;20044;-72
2023/04/18 04:55:45;;;;;;;13.38;12.15;;;8.70;99.90;;;;;;2092331;28;20143;-72
2023/04/18 04:56:45;;;;;;;12.35;10.85;;;8.70;99.90;;;;;;2092243;28;20048;-71
2023/04/18 04:57:46;;;;;;;12.95;11.85;;;8.70;99.90;;;;;;2091537;28;20528;-71
2023/04/18 04:58:47;;;;;;;11.85;10.85;;;8.70;99.90;;;;;;2092891;28;20291;-71
2023/04/18 04:59:47;;;;;;;12.05;10.95;;;8.70;99.90;;;;;;2091359;28;20039;-72
2023/04/18 05:00:49;;;;;;;12.18;11.00;;;8.70;99.90;;;;;;2087460;28;20025;-72
2023/04/18 05:01:50;;;;;;;11.57;10.48;;;8.70;99.90;;;;;;2089774;28;20020;-72
2023/04/18 05:02:52;;;;;;;12.05;10.90;;;8.70;99.90;;;;;;2094765;28;20028;-72
2023/04/18 05:03:53;;;;;;;12.60;11.45;;;8.70;99.90;;;;;;2093814;28;20027;-71
2023/04/18 05:04:54;;;;;;;13.10;11.80;;;8.80;99.90;;;;;;2095340;28;20039;-72
2023/04/18 05:05:54;;;;;;;16.23;11.90;;;8.80;99.90;;;;;;2093409;28;20017;-71
2023/04/18 05:06:56;;;;;;;13.18;11.93;;;8.80;99.90;;;;;;2093652;28;20520;-72
2023/04/18 05:07:57;;;;;;;12.07;10.88;;;8.80;99.90;;;;;;2093474;28;20083;-72
2023/04/18 05:08:59;;;;;;;12.57;11.38;;;8.80;99.90;;;;;;2095671;28;20029;-72
2023/04/18 05:10:00;;;;;;;12.70;11.40;;;8.90;99.90;;;;;;2095570;28;20602;-72
2023/04/18 05:11:01;;;;;;;11.65;10.55;;;8.90;99.90;;;;;;2095073;28;20117;-72
2023/04/18 05:12:01;;;;;;;12.60;11.50;;;8.90;99.90;;;;;;2094266;28;20464;-71
2023/04/18 05:13:03;;;;;;;13.70;12.30;;;8.90;99.90;;;;;;2094699;28;20032;-72
2023/04/18 05:14:03;;;;;;;12.82;11.02;;;8.90;99.90;;;;;;2095041;28;20502;-72
2023/04/18 05:15:04;;;;;;;13.25;12.05;;;8.90;99.90;;;;;;2093102;28;20365;-72
2023/04/18 05:16:06;;;;;;;12.73;11.45;;;8.90;99.90;;;;;;2093713;28;20033;-72
2023/04/18 05:17:06;;;;;;;11.88;10.77;;;9.00;99.90;;;;;;2095528;28;20573;-72
2023/04/18 05:18:07;;;;;;;13.05;11.90;;;9.00;99.90;;;;;;2093952;28;20455;-72
2023/04/18 05:19:07;;;;;;;12.75;11.45;;;9.00;99.90;;;;;;2093866;28;20021;-72